Time;durP1;ratioP1;P1;durP2;ratioP2;P2;SDS_P1;SDS_P2;PMS_P1;PMS_P2;Temp;Humidity;BMP_temperature;BMP_pressure;BME280_temperature;BME280_humidity;BME280_pressure;Samples;Min_cycle;Max_cycle;Signal;HPM_P1;HPM_P2
2021/03/18 00:01:08;;;;;;;0.80;0.80;;;;;;;-0.46;84.63;97545.09;299397;216;63005;-60
2021/03/18 00:06:13;;;;;;;0.80;0.80;;;;;;;-0.32;84.24;97545.06;299396;265;63009;-59
2021/03/18 00:11:16;;;;;;;;;;;;;;;-0.28;83.67;97536.44;299996;983;6000;-60
2021/03/18 00:16:18;;;;;;;0.80;0.80;;;;;;;-0.16;83.19;97529.44;299400;241;63009;-60
2021/03/18 00:21:20;;;;;;;0.80;0.80;;;;;;;-0.22;83.07;97532.94;299396;197;63009;-59
2021/03/18 00:26:26;;;;;;;0.80;0.80;;;;;;;-0.30;83.62;97538.47;299396;197;63005;-60
2021/03/18 00:31:30;;;;;;;0.70;0.70;;;;;;;-0.31;83.69;97536.84;299396;226;63009;-58
2021/03/18 00:36:31;;;;;;;0.80;0.80;;;;;;;-0.27;83.08;97532.72;299418;224;63004;-60
2021/03/18 00:41:32;;;;;;;0.80;0.80;;;;;;;-0.18;82.23;97528.81;299396;245;63009;-60
2021/03/18 00:46:33;;;;;;;0.80;0.80;;;;;;;-0.05;81.53;97526.13;299396;224;63005;-60
2021/03/18 00:51:34;;;;;;;0.70;0.70;;;;;;;-0.13;81.89;97521.03;299397;223;63008;-59
2021/03/18 00:56:35;;;;;;;0.80;0.80;;;;;;;-0.16;82.11;97508.09;299396;227;63004;-59
2021/03/18 01:01:37;;;;;;;0.80;0.80;;;;;;;-0.08;80.86;97507.88;299395;233;63009;-59
2021/03/18 01:06:38;;;;;;;0.82;0.82;;;;;;;-0.19;81.43;97510.38;299395;220;63004;-59
2021/03/18 01:11:39;;;;;;;0.90;0.90;;;;;;;-0.29;82.08;97512.62;299395;196;63009;-59
2021/03/18 01:16:49;;;;;;;0.80;0.80;;;;;;;-0.31;82.22;97498.69;299395;214;63005;-59
2021/03/18 01:21:55;;;;;;;0.80;0.80;;;;;;;-0.34;82.54;97505.25;299395;244;63008;-61
2021/03/18 01:26:56;;;;;;;0.88;0.88;;;;;;;-0.43;82.35;97503.88;299395;202;63004;-61
2021/03/18 01:31:57;;;;;;;0.80;0.80;;;;;;;-0.31;82.47;97510.19;299395;266;63009;-54
2021/03/18 01:36:58;;;;;;;0.80;0.80;;;;;;;-0.21;81.36;97499.91;299395;230;63004;-59
2021/03/18 01:41:58;;;;;;;0.80;0.80;;;;;;;-0.31;81.67;97498.69;299395;209;63009;-60
2021/03/18 01:47:00;;;;;;;0.80;0.80;;;;;;;-0.41;81.57;97501.81;299395;221;63005;-59
2021/03/18 01:52:02;;;;;;;0.80;0.80;;;;;;;-0.45;82.05;97503.25;299395;231;63009;-61
2021/03/18 01:57:04;;;;;;;0.80;0.80;;;;;;;-0.42;82.31;97494.84;299395;214;63004;-60
2021/03/18 02:02:08;;;;;;;0.80;0.80;;;;;;;-0.42;82.57;97497.50;299395;233;63009;-60
2021/03/18 02:07:10;;;;;;;0.80;0.80;;;;;;;-0.53;82.29;97495.47;299417;252;63014;-60
2021/03/18 02:12:11;;;;;;;0.80;0.80;;;;;;;-0.47;82.35;97499.97;299395;255;63009;-60
2021/03/18 02:17:19;;;;;;;0.80;0.80;;;;;;;-0.54;82.36;97489.31;299395;299;63005;-61
2021/03/18 02:22:56;;;;;;;0.80;0.80;;;;;;;-0.51;82.86;97488.09;299395;230;63009;-60
2021/03/18 02:28:33;;;;;;;0.80;0.80;;;;;;;-0.45;82.24;97487.25;299395;257;63011;-60
2021/03/18 02:34:18;;;;;;;0.80;0.80;;;;;;;-0.50;81.89;97495.88;299394;213;64009;-61
2021/03/18 02:39:27;;;;;;;0.80;0.80;;;;;;;-0.52;81.50;97497.94;299395;196;63005;-61
2021/03/18 02:44:31;;;;;;;0.80;0.80;;;;;;;-0.56;81.56;97501.22;299395;297;63008;-61
2021/03/18 02:49:37;;;;;;;0.80;0.80;;;;;;;-0.57;80.97;97504.91;299417;303;63004;-59
2021/03/18 02:54:40;;;;;;;0.80;0.80;;;;;;;-0.45;81.43;97503.25;299395;241;63009;-61
2021/03/18 02:59:43;;;;;;;0.80;0.80;;;;;;;-0.35;81.56;97508.97;299395;234;63005;-60
2021/03/18 03:04:45;;;;;;;0.80;0.80;;;;;;;-0.41;80.93;97515.97;299395;230;63009;-60
2021/03/18 03:09:48;;;;;;;0.75;0.75;;;;;;;-0.39;81.14;97518.41;299395;195;63005;-61
2021/03/18 03:14:53;;;;;;;0.80;0.80;;;;;;;-0.39;81.49;97513.09;299395;212;63009;-60
2021/03/18 03:19:58;;;;;;;0.77;0.77;;;;;;;-0.38;81.22;97504.88;299395;196;63004;-60
2021/03/18 03:25:01;;;;;;;0.80;0.80;;;;;;;-0.30;81.68;97514.47;299395;254;63009;-60
2021/03/18 03:30:05;;;;;;;0.80;0.80;;;;;;;-0.31;81.11;97509.34;299395;220;63011;-60
2021/03/18 03:35:08;;;;;;;0.80;0.80;;;;;;;-0.36;81.07;97507.34;299417;243;63008;-60
2021/03/18 03:40:13;;;;;;;0.80;0.80;;;;;;;-0.31;80.94;97509.34;299395;210;63004;-60
2021/03/18 03:45:17;;;;;;;0.80;0.80;;;;;;;-0.11;79.51;97512.81;299417;253;63009;-60
2021/03/18 03:50:21;;;;;;;0.80;0.80;;;;;;;-0.08;79.01;97513.22;299395;219;63004;-59
2021/03/18 03:55:34;;;;;;;0.80;0.80;;;;;;;-0.08;79.32;97517.72;299395;215;63009;-60
2021/03/18 04:00:39;;;;;;;0.70;0.70;;;;;;;-0.06;79.25;97516.50;299395;239;63005;-60
2021/03/18 04:05:43;;;;;;;0.80;0.80;;;;;;;-0.17;79.69;97517.13;299395;220;63008;-60
2021/03/18 04:10:45;;;;;;;0.77;0.77;;;;;;;-0.19;80.22;97519.19;299417;271;63004;-60
2021/03/18 04:15:51;;;;;;;0.70;0.70;;;;;;;-0.21;79.49;97521.25;299395;206;63009;-59
2021/03/18 04:20:54;;;;;;;0.80;0.80;;;;;;;-0.23;79.61;97517.97;299395;196;63004;-60
2021/03/18 04:25:57;;;;;;;0.70;0.70;;;;;;;-0.16;79.23;97518.78;299395;212;63009;-61
2021/03/18 04:30:59;;;;;;;0.80;0.80;;;;;;;-0.23;79.39;97512.62;299395;233;63005;-60
2021/03/18 04:36:04;;;;;;;0.70;0.70;;;;;;;-0.23;79.58;97507.28;299395;231;63008;-60
2021/03/18 04:41:07;;;;;;;0.80;0.80;;;;;;;-0.25;79.77;97520.00;299395;245;63009;-59
2021/03/18 04:46:09;;;;;;;0.80;0.80;;;;;;;-0.16;79.27;97518.78;299395;222;63009;-61
2021/03/18 04:51:11;;;;;;;0.80;0.80;;;;;;;0.02;77.63;97515.41;299395;206;63005;-60
2021/03/18 04:56:12;;;;;;;0.80;0.80;;;;;;;-0.10;79.12;97512.59;299395;241;63009;-59
2021/03/18 05:01:15;;;;;;;0.80;0.80;;;;;;;-0.11;79.74;97516.28;299395;228;63005;-60
2021/03/18 05:06:20;;;;;;;0.80;0.80;;;;;;;-0.14;79.47;97507.88;299395;230;63009;-59
2021/03/18 05:11:21;;;;;;;;;;;;;;;-0.13;79.24;97501.53;299996;983;6000;-60
2021/03/18 05:16:23;;;;;;;0.80;0.80;;;;;;;-0.04;77.86;97500.28;299400;234;63005;-60
2021/03/18 05:21:24;;;;;;;0.80;0.80;;;;;;;-0.10;78.54;97509.94;299395;216;63009;-59
2021/03/18 05:26:26;;;;;;;0.80;0.80;;;;;;;-0.15;78.78;97512.41;299395;197;63004;-59
2021/03/18 05:31:27;;;;;;;0.80;0.80;;;;;;;-0.17;79.11;97511.78;299395;218;63009;-59
2021/03/18 05:36:30;;;;;;;0.80;0.80;;;;;;;-0.32;79.66;97511.19;299395;211;63005;-59
2021/03/18 05:41:31;;;;;;;0.80;0.80;;;;;;;-0.45;80.26;97513.91;299395;249;63009;-60
2021/03/18 05:46:34;;;;;;;0.80;0.80;;;;;;;-0.45;81.16;97513.91;299395;227;63012;-60
2021/03/18 05:51:37;;;;;;;0.80;0.80;;;;;;;-0.43;80.93;97517.19;299395;239;63009;-59
2021/03/18 05:56:39;;;;;;;0.70;0.70;;;;;;;-0.35;80.74;97511.66;299395;226;63004;-60
2021/03/18 06:01:41;;;;;;;0.80;0.80;;;;;;;-0.30;80.61;97517.16;299395;210;63021;-60
2021/03/18 06:06:44;;;;;;;0.80;0.80;;;;;;;-0.24;80.57;97516.31;299395;227;63005;-59
2021/03/18 06:11:46;;;;;;;0.80;0.80;;;;;;;-0.17;79.97;97517.13;299395;252;63009;-60
2021/03/18 06:16:51;;;;;;;0.80;0.80;;;;;;;-0.09;79.81;97524.91;299395;211;63011;-60
2021/03/18 06:21:59;;;;;;;0.80;0.80;;;;;;;-0.08;79.82;97526.56;299395;203;63009;-60
2021/03/18 06:27:04;;;;;;;0.80;0.80;;;;;;;-0.11;79.71;97523.47;299395;246;63004;-59
2021/03/18 06:32:21;;;;;;;0.70;0.70;;;;;;;-0.08;79.17;97521.22;299395;218;63009;-60
2021/03/18 06:37:43;;;;;;;0.80;0.80;;;;;;;-0.19;78.45;97518.38;299395;198;63005;-61
2021/03/18 06:42:58;;;;;;;0.70;0.70;;;;;;;-0.04;78.60;97509.09;299395;221;63008;-61
2021/03/18 06:48:15;;;;;;;0.80;0.80;;;;;;;0.05;78.27;97514.19;299395;244;63004;-61
2021/03/18 06:53:23;;;;;;;0.88;0.88;;;;;;;0.26;78.47;97516.56;299395;238;63009;-59
2021/03/18 06:58:27;;;;;;;0.80;0.80;;;;;;;0.28;77.80;97514.50;299395;313;63005;-61
2021/03/18 07:03:31;;;;;;;0.80;0.80;;;;;;;0.28;77.95;97523.34;299417;212;63009;-60
2021/03/18 07:08:40;;;;;;;0.80;0.80;;;;;;;0.29;78.11;97522.31;299417;202;63005;-60
2021/03/18 07:13:43;;;;;;;0.70;0.70;;;;;;;0.33;77.70;97526.19;299373;226;63009;-60
2021/03/18 07:19:02;;;;;;;0.80;0.80;;;;;;;0.39;77.30;97524.50;299395;250;63004;-60
2021/03/18 07:24:09;;;;;;;0.80;0.80;;;;;;;0.48;76.92;97531.25;299395;202;63009;-59
2021/03/18 07:29:22;;;;;;;0.70;0.70;;;;;;;0.66;75.95;97533.22;299395;215;63005;-60
2021/03/18 07:34:25;;;;;;;0.80;0.80;;;;;;;0.69;75.66;97529.28;299395;223;63008;-60
2021/03/18 07:39:26;;;;;;;0.80;0.80;;;;;;;0.76;76.29;97527.38;299395;265;63004;-59
2021/03/18 07:44:28;;;;;;;0.80;0.80;;;;;;;0.77;76.32;97523.69;299395;207;63009;-60
2021/03/18 07:49:47;;;;;;;0.80;0.80;;;;;;;0.88;74.36;97514.97;299395;228;63004;-59
2021/03/18 07:54:51;;;;;;;0.80;0.80;;;;;;;1.23;74.32;97516.16;299395;209;63009;-60
2021/03/18 07:59:51;;;;;;;0.80;0.80;;;;;;;1.43;74.16;97509.81;299395;226;63005;-58
2021/03/18 08:04:57;;;;;;;0.80;0.80;;;;;;;1.57;73.24;97508.66;299395;253;63009;-58
2021/03/18 08:09:58;;;;;;;0.80;0.80;;;;;;;2.12;68.99;97495.28;299395;266;63004;-60
2021/03/18 08:15:30;;;;;;;0.80;0.80;;;;;;;1.87;71.97;97498.88;299395;227;63009;-59
2021/03/18 08:21:01;;;;;;;0.80;0.80;;;;;;;2.50;69.39;97497.69;299395;232;63009;-58
2021/03/18 08:26:11;;;;;;;0.80;0.80;;;;;;;3.10;65.08;97487.75;299394;199;64009;-60
2021/03/18 08:31:18;;;;;;;0.80;0.80;;;;;;;3.16;65.07;97486.81;299395;302;63009;-58
2021/03/18 08:36:31;;;;;;;0.80;0.80;;;;;;;3.16;65.63;97492.16;299395;296;63005;-57
2021/03/18 08:41:38;;;;;;;0.70;0.70;;;;;;;2.66;67.73;97489.84;299395;215;63021;-59
2021/03/18 08:46:52;;;;;;;0.70;0.70;;;;;;;2.61;68.10;97483.53;299395;251;63004;-57
2021/03/18 08:51:54;;;;;;;0.80;0.80;;;;;;;2.15;67.36;97489.47;299395;197;63009;-58
2021/03/18 08:56:55;;;;;;;0.73;0.73;;;;;;;2.33;68.70;97481.44;299395;271;63012;-60
2021/03/18 09:02:10;;;;;;;0.70;0.70;;;;;;;2.40;68.08;97481.38;299395;251;63009;-59
2021/03/18 09:07:16;;;;;;;0.80;0.80;;;;;;;2.52;65.39;97466.12;299417;226;63005;-58
2021/03/18 09:12:16;;;;;;;0.70;0.70;;;;;;;2.76;64.88;97469.72;299395;280;63009;-57
2021/03/18 09:17:17;;;;;;;0.70;0.70;;;;;;;2.49;62.88;97461.22;299395;332;63004;-58
2021/03/18 09:22:25;;;;;;;0.90;0.90;;;;;;;2.43;63.02;97459.44;299395;213;63018;-58
2021/03/18 09:27:35;;;;;;;0.80;0.80;;;;;;;2.47;64.85;97461.44;299395;202;63005;-57
2021/03/18 09:32:36;;;;;;;0.80;0.80;;;;;;;2.36;65.71;97464.94;299395;221;63009;-58
2021/03/18 09:37:37;;;;;;;0.80;0.80;;;;;;;2.04;65.51;97458.94;299395;208;63005;-57
2021/03/18 09:42:40;;;;;;;0.80;0.80;;;;;;;2.34;67.08;97467.00;299395;254;63009;-59
2021/03/18 09:47:48;;;;;;;0.80;0.80;;;;;;;2.39;67.85;97463.66;299395;207;63004;-61
2021/03/18 09:52:50;;;;;;;0.75;0.75;;;;;;;2.45;64.94;97455.50;299395;324;63009;-57
2021/03/18 09:57:51;;;;;;;0.77;0.77;;;;;;;2.30;65.33;97455.13;299395;271;63005;-52
2021/03/18 10:02:52;;;;;;;0.80;0.80;;;;;;;2.41;66.02;97446.31;299395;224;63008;-57
2021/03/18 10:07:57;;;;;;;0.70;0.70;;;;;;;2.79;63.36;97431.72;299395;233;63004;-57
2021/03/18 10:12:59;;;;;;;0.80;0.80;;;;;;;2.86;62.65;97435.13;299395;307;63009;-59
2021/03/18 10:18:02;;;;;;;0.70;0.70;;;;;;;2.72;62.79;97431.84;299395;217;63004;-58
2021/03/18 10:23:07;;;;;;;0.70;0.70;;;;;;;2.82;60.95;97416.00;299395;232;63009;-57
2021/03/18 10:28:15;;;;;;;0.80;0.80;;;;;;;2.93;61.00;97415.22;299395;254;63005;-58
2021/03/18 10:33:22;;;;;;;0.80;0.80;;;;;;;2.95;62.72;97414.97;299395;217;63008;-58
2021/03/18 10:38:38;;;;;;;0.70;0.70;;;;;;;3.40;58.66;97401.00;299395;320;63004;-58
2021/03/18 10:43:42;;;;;;;0.80;0.80;;;;;;;3.19;59.11;97405.06;299395;226;63009;-55
2021/03/18 10:48:47;;;;;;;0.70;0.70;;;;;;;2.94;61.36;97408.81;299395;196;63004;-58
2021/03/18 10:53:51;;;;;;;0.80;0.80;;;;;;;2.97;58.68;97397.62;299395;318;63009;-62
2021/03/18 10:58:54;;;;;;;0.80;0.80;;;;;;;2.93;57.01;97395.63;299417;253;63005;-57
2021/03/18 11:04:05;;;;;;;0.80;0.80;;;;;;;2.96;58.86;97400.53;299395;327;63009;-57
2021/03/18 11:09:12;;;;;;;0.80;0.80;;;;;;;3.02;59.81;97403.09;299395;212;63004;-59
2021/03/18 11:14:14;;;;;;;0.70;0.70;;;;;;;3.22;60.41;97402.75;299395;202;63009;-52
2021/03/18 11:19:21;;;;;;;0.80;0.80;;;;;;;3.43;58.05;97389.81;299395;307;63005;-58
2021/03/18 11:24:27;;;;;;;0.70;0.70;;;;;;;3.66;58.27;97395.13;299395;368;63009;-62
2021/03/18 11:29:37;;;;;;;0.70;0.70;;;;;;;3.76;58.82;97383.78;299395;202;63005;-52
2021/03/18 11:34:43;;;;;;;0.80;0.80;;;;;;;3.74;59.85;97381.34;299395;246;63009;-51
2021/03/18 11:39:44;;;;;;;0.80;0.80;;;;;;;3.94;58.47;97371.00;299395;226;63004;-59
2021/03/18 11:44:45;;;;;;;0.80;0.80;;;;;;;4.12;56.37;97356.59;299396;326;63009;-58
2021/03/18 11:49:46;;;;;;;0.80;0.80;;;;;;;4.12;56.02;97355.78;299396;225;63005;-59
2021/03/18 11:54:47;;;;;;;0.70;0.70;;;;;;;4.25;52.35;97347.41;299396;197;63019;-57
2021/03/18 11:59:49;;;;;;;0.70;0.70;;;;;;;4.20;50.23;97332.00;299396;199;63004;-58
2021/03/18 12:04:49;;;;;;;0.80;0.80;;;;;;;3.66;51.41;97330.72;299396;197;63009;-59
2021/03/18 12:09:51;;;;;;;0.70;0.70;;;;;;;3.97;53.02;97332.13;299396;246;63004;-59
2021/03/18 12:14:52;;;;;;;0.90;0.90;;;;;;;4.03;53.52;97336.53;299396;205;63009;-64
2021/03/18 12:19:53;;;;;;;0.70;0.70;;;;;;;3.53;58.98;97347.06;299396;251;63005;-59
2021/03/18 12:24:54;;;;;;;0.70;0.70;;;;;;;3.31;56.79;97323.56;299396;376;63008;-59
2021/03/18 12:29:55;;;;;;;0.70;0.70;;;;;;;3.61;56.83;97328.75;299397;337;63004;-58
2021/03/18 12:34:59;;;;;;;0.70;0.70;;;;;;;3.71;56.13;97317.41;299397;298;63009;-59
2021/03/18 12:40:01;;;;;;;0.70;0.70;;;;;;;3.85;61.43;97334.84;299418;273;63004;-57
2021/03/18 12:45:08;;;;;;;1.02;1.02;;;;;;;3.82;61.06;97324.59;299396;293;63019;-63
2021/03/18 12:50:12;;;;;;;0.70;0.70;;;;;;;3.56;62.21;97322.47;299396;276;63005;-62
2021/03/18 12:55:15;;;;;;;1.10;1.10;;;;;;;3.73;61.90;97320.66;299396;315;63008;-59
2021/03/18 13:00:18;;;;;;;0.80;0.80;;;;;;;3.71;61.38;97304.00;299396;369;63004;-60
2021/03/18 13:05:20;;;;;;;0.80;0.80;;;;;;;3.76;60.24;97298.72;299396;282;63009;-58
2021/03/18 13:10:21;;;;;;;0.70;0.70;;;;;;;3.79;61.77;97306.31;299396;288;63008;-60
2021/03/18 13:15:22;;;;;;;1.62;1.55;;;;;;;3.94;58.78;97282.41;299396;207;63018;-61
2021/03/18 13:20:24;;;;;;;0.75;0.75;;;;;;;3.81;60.03;97282.69;299396;241;63005;-59
2021/03/18 13:25:27;;;;;;;0.80;0.80;;;;;;;4.09;57.51;97259.56;299397;198;63009;-63
2021/03/18 13:30:29;;;;;;;0.80;0.80;;;;;;;4.02;59.07;97265.91;299395;299;63004;-58
2021/03/18 13:35:31;;;;;;;1.35;1.35;;;;;;;4.29;56.41;97243.78;299395;291;63009;-62
2021/03/18 13:40:35;;;;;;;0.90;0.90;;;;;;;4.01;56.95;97247.34;299395;245;63005;-62
2021/03/18 13:45:40;;;;;;;;;;;;;;;3.94;58.14;97246.69;299996;983;6004;-60
2021/03/18 13:50:47;;;;;;;0.95;0.95;;;;;;;4.28;55.47;97218.78;299400;227;63009;-63
2021/03/18 13:55:48;;;;;;;1.15;1.15;;;;;;;3.93;55.53;97216.34;299395;364;63005;-60
2021/03/18 14:00:53;;;;;;;0.70;0.70;;;;;;;3.98;55.21;97213.75;299395;202;63009;-59
2021/03/18 14:05:54;;;;;;;0.70;0.70;;;;;;;4.24;55.04;97198.84;299416;228;64009;-60
2021/03/18 14:10:55;;;;;;;0.70;0.70;;;;;;;4.20;52.68;97186.16;299395;346;63009;-60
2021/03/18 14:15:59;;;;;;;1.40;1.33;;;;;;;4.03;52.10;97181.63;299395;292;63004;-58
2021/03/18 14:21:00;;;;;;;0.80;0.80;;;;;;;4.38;51.66;97175.16;299417;271;63009;-64
2021/03/18 14:26:02;;;;;;;0.70;0.70;;;;;;;3.99;50.65;97164.38;299373;222;63005;-59
2021/03/18 14:31:05;;;;;;;0.70;0.70;;;;;;;4.26;48.18;97144.88;299395;196;63009;-58
2021/03/18 14:36:09;;;;;;;0.80;0.80;;;;;;;4.30;48.74;97151.41;299395;310;63013;-54
2021/03/18 14:41:10;;;;;;;0.80;0.80;;;;;;;4.24;49.99;97149.69;299417;208;63009;-59
2021/03/18 14:46:12;;;;;;;0.70;0.70;;;;;;;4.29;49.78;97137.16;299395;203;63004;-59
2021/03/18 14:51:13;;;;;;;0.70;0.70;;;;;;;4.56;47.48;97128.37;299395;211;63009;-63
2021/03/18 14:56:14;;;;;;;1.20;1.20;;;;;;;4.55;48.15;97124.88;299395;284;63005;-60
2021/03/18 15:01:15;;;;;;;0.80;0.80;;;;;;;4.53;48.63;97124.31;299395;250;63009;-58
2021/03/18 15:06:16;;;;;;;0.70;0.70;;;;;;;4.54;49.76;97112.50;299395;318;63005;-58
2021/03/18 15:11:18;;;;;;;1.25;1.17;;;;;;;4.60;46.44;97100.75;299395;197;63009;-62
2021/03/18 15:16:19;;;;;;;0.70;0.70;;;;;;;4.54;47.29;97101.75;299395;211;63004;-62
2021/03/18 15:21:20;;;;;;;0.80;0.80;;;;;;;4.76;46.37;97103.66;299395;196;63009;-59
2021/03/18 15:26:21;;;;;;;0.70;0.70;;;;;;;4.74;46.42;97097.72;299395;226;63005;-58
2021/03/18 15:31:22;;;;;;;0.70;0.70;;;;;;;5.24;46.64;97092.06;299395;295;63008;-57
2021/03/18 15:36:23;;;;;;;0.70;0.70;;;;;;;5.08;44.76;97080.34;299395;224;63004;-57
2021/03/18 15:41:25;;;;;;;0.70;0.70;;;;;;;4.82;46.01;97075.78;299395;239;63009;-58
2021/03/18 15:46:26;;;;;;;0.70;0.70;;;;;;;4.54;47.72;97080.25;299395;243;63004;-58
2021/03/18 15:51:28;;;;;;;1.12;1.12;;;;;;;4.41;51.39;97094.06;299395;247;63009;-59
2021/03/18 15:56:33;;;;;;;0.70;0.70;;;;;;;3.79;53.55;97094.25;299395;274;63005;-58
2021/03/18 16:01:34;;;;;;;0.90;0.90;;;;;;;3.86;55.86;97100.25;299417;342;63008;-63
2021/03/18 16:06:35;;;;;;;0.70;0.70;;;;;;;3.94;55.99;97096.34;299395;361;63004;-62
2021/03/18 16:11:35;;;;;;;1.77;1.77;;;;;;;3.59;57.56;97104.66;299395;285;63009;-58
2021/03/18 16:16:36;;;;;;;0.80;0.80;;;;;;;3.49;57.04;97093.75;299395;287;63004;-56
2021/03/18 16:21:38;;;;;;;0.80;0.80;;;;;;;3.32;56.98;97091.06;299395;196;63009;-59
2021/03/18 16:26:39;;;;;;;0.80;0.80;;;;;;;3.30;55.65;97085.94;299395;220;63005;-59
2021/03/18 16:31:41;;;;;;;0.80;0.80;;;;;;;3.20;55.39;97084.94;299395;310;63008;-58
2021/03/18 16:36:42;;;;;;;0.80;0.80;;;;;;;3.23;55.08;97090.63;299395;202;63004;-58
2021/03/18 16:41:43;;;;;;;0.80;0.80;;;;;;;3.17;57.05;97091.59;299395;224;63009;-53
2021/03/18 16:46:45;;;;;;;0.80;0.80;;;;;;;3.03;58.59;97095.63;299395;205;63005;-59
2021/03/18 16:51:47;;;;;;;0.80;0.80;;;;;;;2.93;60.88;97093.56;299395;233;63009;-57
2021/03/18 16:56:48;;;;;;;0.70;0.70;;;;;;;2.85;60.03;97082.41;299395;286;63005;-58
2021/03/18 17:01:49;;;;;;;0.70;0.70;;;;;;;2.86;60.69;97078.66;299395;246;63009;-53
2021/03/18 17:06:50;;;;;;;0.70;0.70;;;;;;;2.86;60.22;97067.94;299395;276;63004;-58
2021/03/18 17:11:53;;;;;;;0.70;0.70;;;;;;;2.83;58.85;97065.75;299395;293;63009;-58
2021/03/18 17:16:54;;;;;;;0.70;0.70;;;;;;;2.66;60.40;97068.38;299395;220;63011;-58
2021/03/18 17:21:56;;;;;;;0.70;0.70;;;;;;;2.38;61.70;97071.84;299395;246;63009;-52
2021/03/18 17:26:57;;;;;;;0.80;0.80;;;;;;;2.10;63.08;97064.53;299395;249;63005;-58
2021/03/18 17:31:58;;;;;;;0.70;0.70;;;;;;;1.91;63.95;97063.88;299395;316;63009;-53
2021/03/18 17:37:02;;;;;;;0.70;0.70;;;;;;;1.71;64.05;97052.72;299395;218;63004;-58
2021/03/18 17:42:04;;;;;;;;;;;;;;;1.50;65.06;97047.94;299996;983;6004;-52
2021/03/18 17:47:05;;;;;;;0.80;0.80;;;;;;;1.42;65.45;97040.25;299400;226;63009;-58
2021/03/18 17:52:06;;;;;;;0.80;0.80;;;;;;;1.45;65.98;97050.47;299395;277;63004;-52
2021/03/18 17:57:07;;;;;;;0.80;0.80;;;;;;;1.39;65.97;97051.41;299395;218;63009;-57
2021/03/18 18:02:08;;;;;;;0.80;0.80;;;;;;;1.37;65.73;97038.28;299395;241;63005;-59
2021/03/18 18:07:10;;;;;;;0.70;0.70;;;;;;;1.40;64.34;97031.62;299395;210;63008;-53
2021/03/18 18:12:11;;;;;;;0.77;0.77;;;;;;;1.34;65.40;97036.06;299395;196;63004;-52
2021/03/18 18:17:13;;;;;;;0.80;0.80;;;;;;;1.28;65.90;97023.63;299395;216;63005;-57
2021/03/18 18:22:14;;;;;;;0.70;0.70;;;;;;;1.28;65.85;97029.78;299395;217;63004;-58
2021/03/18 18:27:16;;;;;;;0.80;0.80;;;;;;;1.27;66.00;97024.66;299395;227;63009;-59
2021/03/18 18:32:18;;;;;;;0.80;0.80;;;;;;;1.26;67.28;97036.41;299395;249;63005;-58
2021/03/18 18:37:19;;;;;;;0.80;0.80;;;;;;;1.23;66.87;97018.16;299395;240;63008;-60
2021/03/18 18:42:20;;;;;;;0.80;0.80;;;;;;;1.19;66.91;97025.81;299395;226;63004;-52
2021/03/18 18:47:21;;;;;;;0.80;0.80;;;;;;;1.17;67.16;97021.72;299395;245;63009;-57
2021/03/18 18:52:22;;;;;;;0.80;0.80;;;;;;;1.21;66.99;97022.91;299395;198;63004;-58
2021/03/18 18:57:23;;;;;;;0.80;0.80;;;;;;;1.16;67.52;97026.25;299395;250;63009;-51
2021/03/18 19:02:24;;;;;;;0.80;0.80;;;;;;;1.26;67.10;97021.19;299395;243;63005;-58
2021/03/18 19:07:26;;;;;;;0.80;0.80;;;;;;;1.36;66.93;97022.47;299395;251;63008;-58
2021/03/18 19:12:27;;;;;;;0.80;0.80;;;;;;;1.56;66.46;97022.94;299395;268;63004;-60
2021/03/18 19:17:31;;;;;;;0.80;0.80;;;;;;;1.55;66.78;97021.31;299395;217;63009;-59
2021/03/18 19:22:32;;;;;;;0.80;0.80;;;;;;;1.54;67.00;97023.16;299395;219;63004;-58
2021/03/18 19:27:33;;;;;;;0.80;0.80;;;;;;;1.65;65.78;97013.53;299395;207;63009;-58
2021/03/18 19:32:34;;;;;;;0.73;0.73;;;;;;;1.61;66.19;97005.16;299395;199;63005;-58
2021/03/18 19:37:35;;;;;;;0.70;0.70;;;;;;;1.54;66.76;97000.97;299395;225;63009;-57
2021/03/18 19:42:38;;;;;;;0.80;0.80;;;;;;;1.50;66.65;96994.44;299395;236;63004;-56
2021/03/18 19:47:40;;;;;;;0.80;0.80;;;;;;;1.41;67.34;96990.47;299395;227;63009;-57
2021/03/18 19:52:42;;;;;;;0.80;0.80;;;;;;;1.37;67.23;96995.50;299395;248;63005;-57
2021/03/18 19:57:43;;;;;;;0.80;0.80;;;;;;;1.29;67.88;96983.28;299394;305;64013;-57
2021/03/18 20:02:47;;;;;;;0.80;0.80;;;;;;;1.30;67.93;96979.56;299395;203;63005;-57
2021/03/18 20:07:49;;;;;;;0.80;0.80;;;;;;;1.30;68.42;96979.56;299417;236;63009;-57
2021/03/18 20:12:50;;;;;;;0.80;0.80;;;;;;;1.31;68.67;96973.19;299395;242;63011;-57
2021/03/18 20:17:51;;;;;;;0.80;0.80;;;;;;;1.33;68.08;96973.75;299395;234;63009;-56
2021/03/18 20:22:53;;;;;;;0.80;0.80;;;;;;;1.29;68.40;96966.44;299395;227;63005;-57
2021/03/18 20:27:54;;;;;;;0.80;0.80;;;;;;;1.49;67.64;96971.44;299395;231;63009;-57
2021/03/18 20:32:57;;;;;;;0.80;0.80;;;;;;;1.35;68.27;96965.50;299395;228;63005;-57
2021/03/18 20:37:59;;;;;;;0.80;0.80;;;;;;;1.26;69.75;96969.56;299395;262;63009;-57
2021/03/18 20:43:01;;;;;;;0.88;0.88;;;;;;;1.24;70.58;96975.16;299395;247;63004;-58
2021/03/18 20:48:04;;;;;;;0.70;0.70;;;;;;;1.42;67.88;96960.84;299395;223;63009;-57
2021/03/18 20:53:06;;;;;;;0.80;0.80;;;;;;;1.42;68.18;96954.69;299395;250;63005;-56
2021/03/18 20:58:09;;;;;;;0.70;0.70;;;;;;;1.30;68.51;96942.16;299395;215;63009;-58
2021/03/18 21:03:10;;;;;;;0.80;0.80;;;;;;;1.27;68.25;96942.59;299395;206;63005;-57
2021/03/18 21:08:11;;;;;;;0.80;0.80;;;;;;;1.25;69.02;96938.53;299395;211;63009;-57
2021/03/18 21:13:12;;;;;;;0.80;0.80;;;;;;;1.25;68.60;96927.84;299395;235;63004;-57
2021/03/18 21:18:13;;;;;;;0.80;0.80;;;;;;;1.20;69.36;96923.19;299395;221;63009;-57
2021/03/18 21:23:14;;;;;;;0.70;0.70;;;;;;;1.29;68.10;96924.47;299395;235;63005;-57
2021/03/18 21:28:16;;;;;;;0.80;0.80;;;;;;;1.23;68.55;96914.72;299395;218;63008;-57
2021/03/18 21:33:17;;;;;;;0.80;0.80;;;;;;;1.35;67.51;96906.69;299395;217;63004;-59
2021/03/18 21:38:18;;;;;;;0.80;0.80;;;;;;;1.29;67.83;96910.31;299395;208;63009;-57
2021/03/18 21:43:20;;;;;;;0.80;0.80;;;;;;;1.27;67.86;96913.22;299395;214;63004;-56
2021/03/18 21:48:21;;;;;;;0.80;0.80;;;;;;;1.31;67.55;96911.69;299395;228;63009;-56
2021/03/18 21:53:24;;;;;;;0.80;0.80;;;;;;;1.33;67.35;96904.25;299395;240;63007;-56
2021/03/18 21:58:27;;;;;;;0.80;0.80;;;;;;;1.31;68.14;96903.69;299395;286;63013;-56
2021/03/18 22:03:28;;;;;;;0.80;0.80;;;;;;;1.32;67.86;96899.97;299377;196;125004;-57
2021/03/18 22:08:29;;;;;;;0.80;0.80;;;;;;;1.34;67.25;96889.84;299395;299;63009;-57
2021/03/18 22:13:30;;;;;;;0.80;0.80;;;;;;;1.33;67.54;96882.88;299395;207;63004;-56
2021/03/18 22:18:32;;;;;;;0.70;0.70;;;;;;;1.38;66.54;96873.34;299395;223;63009;-56
2021/03/18 22:23:33;;;;;;;0.80;0.80;;;;;;;1.36;66.76;96870.09;299395;330;63005;-56
2021/03/18 22:28:34;;;;;;;0.80;0.80;;;;;;;1.31;67.33;96873.47;299395;224;63008;-56
2021/03/18 22:33:36;;;;;;;0.80;0.80;;;;;;;1.36;66.94;96862.88;299395;260;63004;-57
2021/03/18 22:38:40;;;;;;;0.80;0.80;;;;;;;1.36;68.05;96864.75;299395;198;63009;-56
2021/03/18 22:43:41;;;;;;;0.70;0.70;;;;;;;1.37;67.53;96866.38;299417;221;63005;-57
2021/03/18 22:48:41;;;;;;;0.80;0.80;;;;;;;1.33;67.41;96861.50;299373;224;63009;-57
2021/03/18 22:53:42;;;;;;;0.73;0.73;;;;;;;1.67;65.75;96856.28;299395;232;63005;-57
2021/03/18 22:58:43;;;;;;;0.80;0.80;;;;;;;1.41;67.67;96865.62;299395;213;63009;-57
2021/03/18 23:03:44;;;;;;;0.80;0.80;;;;;;;1.07;69.13;96867.31;299395;220;63004;-56
2021/03/18 23:08:45;;;;;;;0.80;0.80;;;;;;;0.99;70.40;96865.00;299395;202;63009;-56
2021/03/18 23:13:46;;;;;;;0.73;0.73;;;;;;;1.01;71.02;96868.25;299395;224;63005;-56
2021/03/18 23:24:08;;;;;;;0.88;0.88;;;;;;;1.66;67.24;96868.84;299395;204;63009;-57
2021/03/18 23:29:09;;;;;;;0.70;0.70;;;;;;;1.34;69.73;96868.47;299394;265;64005;-56
2021/03/18 23:34:10;;;;;;;0.80;0.80;;;;;;;0.98;71.77;96866.06;299395;219;63009;-57
2021/03/18 23:39:11;;;;;;;0.80;0.80;;;;;;;1.16;71.00;96865.91;299395;196;63005;-57
2021/03/18 23:44:12;;;;;;;0.80;0.80;;;;;;;1.39;71.09;96866.94;299395;235;63009;-56
2021/03/18 23:49:17;;;;;;;0.80;0.80;;;;;;;1.26;73.35;96863.47;299395;214;63004;-60
2021/03/18 23:54:18;;;;;;;;;;;;;;;0.68;76.00;96860.00;299996;983;6004;-57
2021/03/18 23:59:20;;;;;;;0.80;0.80;;;;;;;0.38;77.53;96857.38;299400;240;63009;-56
